createdAt,value
2019-02-06T00:00:26.256Z,3.98
2019-02-06T00:01:14.965Z,3.99
2019-02-06T00:02:14.963Z,4.08
2019-02-06T00:03:14.969Z,4.06
2019-02-06T00:04:15.622Z,4.11
2019-02-06T00:05:15.524Z,4.13
2019-02-06T00:06:14.969Z,4.14
2019-02-06T00:07:14.975Z,4.16
2019-02-06T00:08:15.036Z,4.14
2019-02-06T00:09:14.992Z,4.14
2019-02-06T00:10:15.037Z,4.14
2019-02-06T00:11:14.981Z,4.11
2019-02-06T00:12:14.982Z,4.14
2019-02-06T00:13:14.989Z,4.28
2019-02-06T00:14:15.001Z,4.28
2019-02-06T00:15:14.988Z,4.25
2019-02-06T00:16:15.017Z,4.26
2019-02-06T00:17:15.028Z,4.32
2019-02-06T00:18:14.996Z,4.25
2019-02-06T00:19:15.026Z,4.29
2019-02-06T00:20:15.028Z,4.34
2019-02-06T00:21:14.999Z,4.31
2019-02-06T00:22:15.009Z,4.31
2019-02-06T00:23:14.999Z,4.44
2019-02-06T00:24:15.009Z,4.39
2019-02-06T00:25:15.006Z,4.42
2019-02-06T00:26:15.012Z,4.44
2019-02-06T00:27:15.007Z,4.36
2019-02-06T00:28:15.001Z,4.42
2019-02-06T00:29:15.018Z,4.42
2019-02-06T00:30:15.012Z,4.49
2019-02-06T00:31:15.042Z,4.39
2019-02-06T00:32:15.015Z,4.38
2019-02-06T00:33:15.020Z,4.43
2019-02-06T00:34:15.016Z,4.43
2019-02-06T00:35:25.473Z,4.44
2019-02-06T00:36:15.020Z,4.43
2019-02-06T00:37:15.023Z,4.29
2019-02-06T00:38:15.022Z,4.29
2019-02-06T00:39:15.030Z,4.13
2019-02-06T00:40:15.032Z,4.02
2019-02-06T00:41:15.042Z,3.89
2019-02-06T00:42:15.033Z,3.92
2019-02-06T00:43:15.034Z,3.84
2019-02-06T00:44:15.033Z,3.92
2019-02-06T00:45:15.035Z,3.92
2019-02-06T00:46:15.047Z,3.86
2019-02-06T00:47:15.046Z,3.88
2019-02-06T00:48:15.044Z,3.88
2019-02-06T00:49:15.060Z,3.93
2019-02-06T00:50:15.043Z,3.96
2019-02-06T00:51:15.047Z,3.90
2019-02-06T00:52:15.058Z,3.86
2019-02-06T00:53:15.058Z,3.95
2019-02-06T00:54:15.060Z,4.04
2019-02-06T00:55:15.060Z,4.04
2019-02-06T00:56:15.059Z,3.92
2019-02-06T00:57:15.062Z,3.98
2019-02-06T00:58:15.058Z,3.98
2019-02-06T00:59:15.064Z,3.95
2019-02-06T01:00:15.720Z,3.95
2019-02-06T01:01:15.060Z,3.89
2019-02-06T01:02:15.071Z,3.78
2019-02-06T01:03:15.159Z,3.84
2019-02-06T01:04:15.068Z,3.68
2019-02-06T01:05:15.072Z,3.64
2019-02-06T01:06:15.079Z,3.63
2019-02-06T01:07:15.070Z,3.62
2019-02-06T01:08:15.077Z,3.72
2019-02-06T01:09:15.092Z,3.63
2019-02-06T01:10:15.071Z,3.71
2019-02-06T01:11:15.081Z,3.67
2019-02-06T01:12:15.077Z,3.68
2019-02-06T01:13:15.088Z,3.71
2019-02-06T01:14:15.086Z,3.67
2019-02-06T01:15:15.086Z,3.64
2019-02-06T01:16:15.083Z,3.71
2019-02-06T01:17:15.089Z,3.68
2019-02-06T01:18:15.084Z,3.67
2019-02-06T01:19:15.087Z,3.77
2019-02-06T01:20:15.116Z,3.70
2019-02-06T01:21:15.084Z,3.78
2019-02-06T01:22:15.094Z,3.80
2019-02-06T01:23:16.376Z,3.80
2019-02-06T01:24:15.107Z,3.78
2019-02-06T01:25:15.094Z,3.93
2019-02-06T01:26:15.094Z,4.00
2019-02-06T01:27:15.098Z,4.00
2019-02-06T01:28:15.100Z,4.02
2019-02-06T01:29:15.103Z,4.00
2019-02-06T01:30:15.101Z,3.98
2019-02-06T01:31:15.103Z,4.00
2019-02-06T01:32:15.121Z,4.06
2019-02-06T01:33:15.110Z,4.06
2019-02-06T01:34:15.106Z,4.00
2019-02-06T01:35:15.113Z,4.00
2019-02-06T01:36:15.113Z,3.98
2019-02-06T01:37:15.119Z,4.02
2019-02-06T01:38:15.118Z,3.96
2019-02-06T01:39:15.119Z,3.98
2019-02-06T01:40:15.118Z,3.92
2019-02-06T01:41:15.119Z,3.92
2019-02-06T01:42:15.123Z,3.92
2019-02-06T02:58:18.743Z,3.86
2019-02-06T02:59:18.718Z,3.89
2019-02-06T03:01:11.819Z,3.89
2019-02-06T03:02:11.799Z,3.88
2019-02-06T03:04:05.414Z,3.92
2019-02-06T03:05:05.394Z,3.82
2019-02-06T03:06:05.410Z,3.92
2019-02-06T03:07:05.395Z,3.84
2019-02-06T03:08:05.396Z,3.88
2019-02-06T03:09:05.401Z,3.90
2019-02-06T03:10:05.406Z,3.93
2019-02-06T03:11:05.404Z,3.92
2019-02-06T03:12:05.405Z,4.00
2019-02-06T03:13:05.408Z,3.95
2019-02-06T03:14:05.409Z,3.98
2019-02-06T03:15:05.407Z,3.99
2019-02-06T03:16:05.415Z,3.98
2019-02-06T03:17:05.411Z,3.96
2019-02-06T03:18:05.524Z,4.02
2019-02-06T03:19:05.416Z,3.93
2019-02-06T03:20:05.415Z,3.95
2019-02-06T03:21:05.417Z,3.96
2019-02-06T03:22:05.420Z,3.95
2019-02-06T03:23:05.419Z,3.93
2019-02-06T03:24:05.526Z,3.89
2019-02-06T03:25:05.419Z,3.90
2019-02-06T03:26:05.433Z,3.92
2019-02-06T03:27:05.431Z,3.89
2019-02-06T03:28:05.432Z,3.89
2019-02-06T03:29:05.430Z,3.90
2019-02-06T03:30:05.477Z,3.95
2019-02-06T03:31:05.444Z,4.00
2019-02-06T03:32:05.442Z,3.98
2019-02-06T03:33:05.437Z,3.98
2019-02-06T03:34:05.439Z,3.89
2019-02-06T03:35:05.448Z,3.99
2019-02-06T03:36:05.441Z,3.89
2019-02-06T03:37:05.440Z,3.89
2019-02-06T03:38:05.441Z,3.98
2019-02-06T03:39:05.449Z,3.96
2019-02-06T03:40:05.451Z,3.93
2019-02-06T03:41:05.449Z,3.96
2019-02-06T03:42:05.449Z,3.89
2019-02-06T03:43:05.451Z,3.98
2019-02-06T03:44:05.498Z,3.93
2019-02-06T03:45:05.448Z,3.93
2019-02-06T03:46:05.463Z,3.93
2019-02-06T03:47:05.460Z,3.86
2019-02-06T03:48:05.558Z,3.78
2019-02-06T03:49:05.461Z,3.67
2019-02-06T03:50:05.463Z,3.70
2019-02-06T03:51:05.466Z,3.62
2019-02-06T03:52:05.465Z,3.71
2019-02-06T03:53:05.467Z,3.78
2019-02-06T03:54:05.459Z,3.84
2019-02-06T03:55:05.464Z,3.89
2019-02-06T03:56:05.468Z,3.88
2019-02-06T03:57:05.471Z,3.84
2019-02-06T03:58:05.470Z,3.86
2019-02-06T03:59:05.477Z,3.92
2019-02-06T04:00:05.475Z,3.88
2019-02-06T04:01:05.473Z,3.90
2019-02-06T04:02:05.478Z,3.89
2019-02-06T04:03:05.480Z,3.95
2019-02-06T04:04:05.479Z,3.89
2019-02-06T04:05:05.478Z,3.88
2019-02-06T04:06:05.491Z,3.86
2019-02-06T04:07:05.503Z,3.86
2019-02-06T04:08:05.489Z,3.89
2019-02-06T04:09:05.515Z,3.84
2019-02-06T04:10:05.489Z,3.89
2019-02-06T04:11:05.493Z,3.93
2019-02-06T04:12:05.495Z,3.98
2019-02-06T04:13:05.495Z,3.98
2019-02-06T04:14:05.494Z,4.00
2019-02-06T04:15:05.499Z,3.99
2019-02-06T04:16:05.497Z,4.00
2019-02-06T04:17:05.501Z,4.06
2019-02-06T04:18:05.499Z,4.02
2019-02-06T04:19:05.643Z,3.96
2019-02-06T04:20:05.519Z,3.96
2019-02-06T04:21:05.593Z,3.99
2019-02-06T04:22:05.511Z,4.02
2019-02-06T04:23:05.509Z,3.99
2019-02-06T04:24:05.516Z,4.06
2019-02-06T04:25:05.512Z,3.93
2019-02-06T04:26:05.519Z,4.00
2019-02-06T04:27:05.520Z,3.99
2019-02-06T04:28:05.516Z,3.98
2019-02-06T04:29:05.514Z,3.98
2019-02-06T04:30:05.518Z,4.02
2019-02-06T04:31:05.522Z,4.00
2019-02-06T04:32:05.525Z,4.04
2019-02-06T04:33:05.696Z,3.98
2019-02-06T04:34:05.526Z,3.89
2019-02-06T04:35:05.527Z,3.89
2019-02-06T04:36:05.533Z,3.89
2019-02-06T04:37:06.892Z,3.93
2019-02-06T04:38:05.532Z,3.89
2019-02-06T04:39:05.533Z,3.96
2019-02-06T04:40:05.540Z,3.95
2019-02-06T04:41:05.539Z,3.88
2019-02-06T04:42:05.540Z,3.89
2019-02-06T04:43:05.540Z,3.86
2019-02-06T04:44:05.537Z,3.81
2019-02-06T04:45:05.546Z,3.82
2019-02-06T04:46:05.540Z,3.88
2019-02-06T04:47:05.546Z,3.96
2019-02-06T04:48:05.545Z,3.96
2019-02-06T04:49:05.569Z,3.93
2019-02-06T04:50:05.550Z,3.92
2019-02-06T04:51:05.551Z,3.89
2019-02-06T04:52:05.550Z,3.90
2019-02-06T04:53:05.550Z,3.92
2019-02-06T04:54:05.555Z,3.89
2019-02-06T04:55:05.564Z,3.82
2019-02-06T04:56:06.182Z,3.92
2019-02-06T04:57:05.557Z,3.98
2019-02-06T04:58:05.557Z,3.95
2019-02-06T04:59:05.576Z,3.90
2019-02-06T05:00:05.561Z,3.93
2019-02-06T05:01:05.584Z,3.89
2019-02-06T05:02:05.565Z,3.96
2019-02-06T05:03:05.564Z,3.96
2019-02-06T05:04:05.635Z,3.98
2019-02-06T05:05:05.622Z,3.99
2019-02-06T05:06:05.781Z,4.04
2019-02-06T05:07:05.573Z,3.99
2019-02-06T05:08:05.751Z,4.11
2019-02-06T05:09:05.711Z,4.07
2019-02-06T05:10:05.729Z,3.99
2019-02-06T05:11:05.572Z,3.99
2019-02-06T05:12:05.584Z,3.99
2019-02-06T05:13:05.574Z,3.89
2019-02-06T05:14:05.579Z,3.86
2019-02-06T05:15:05.585Z,3.88
2019-02-06T05:16:05.582Z,3.95
2019-02-06T05:17:05.587Z,3.86
2019-02-06T05:18:05.589Z,3.92
2019-02-06T05:19:05.600Z,3.89
2019-02-06T05:20:05.591Z,3.89
2019-02-06T05:21:05.599Z,3.89
2019-02-06T05:22:05.601Z,3.98
2019-02-06T05:23:05.591Z,3.89
2019-02-06T05:24:05.602Z,3.96
2019-02-06T05:25:05.602Z,3.95
2019-02-06T05:26:05.594Z,3.95
2019-02-06T05:27:05.597Z,3.98
2019-02-06T05:28:05.597Z,3.98
2019-02-06T05:29:05.601Z,3.98
2019-02-06T05:30:05.602Z,3.96
2019-02-06T05:31:05.606Z,4.00
2019-02-06T05:32:05.608Z,3.96
2019-02-06T05:33:05.605Z,4.02
2019-02-06T05:34:05.605Z,3.98
2019-02-06T05:35:05.608Z,4.02
2019-02-06T05:36:05.615Z,3.98
2019-02-06T05:37:05.622Z,4.02
2019-02-06T05:38:05.612Z,4.06
2019-02-06T05:39:05.607Z,4.07
2019-02-06T05:40:05.618Z,4.10
2019-02-06T05:41:05.705Z,4.10
2019-02-06T05:42:05.614Z,4.14
2019-02-06T05:43:05.625Z,4.07
2019-02-06T05:44:05.623Z,4.06
2019-02-06T05:45:05.620Z,4.07
2019-02-06T05:46:05.630Z,4.08
2019-02-06T05:47:05.622Z,4.10
2019-02-06T05:48:05.619Z,4.00
2019-02-06T05:49:05.614Z,4.07
2019-02-06T05:50:05.626Z,4.02
2019-02-06T05:51:05.630Z,4.00
2019-02-06T05:52:05.633Z,4.00
2019-02-06T05:53:05.636Z,4.00
2019-02-06T05:54:05.635Z,3.98
2019-02-06T05:55:05.626Z,3.96
2019-02-06T05:56:05.634Z,4.00
2019-02-06T05:57:05.637Z,3.98
2019-02-06T05:58:05.641Z,4.02
2019-02-06T05:59:05.667Z,4.00
2019-02-06T06:00:05.638Z,4.02
2019-02-06T06:01:05.659Z,3.98
2019-02-06T06:02:05.646Z,3.99
2019-02-06T06:03:05.647Z,4.02
2019-02-06T06:04:05.636Z,3.96
2019-02-06T06:05:05.642Z,4.02
2019-02-06T06:06:05.638Z,3.98
2019-02-06T06:07:05.650Z,3.98
2019-02-06T06:08:05.648Z,4.00
2019-02-06T06:09:05.651Z,3.99
2019-02-06T06:10:05.654Z,4.06
2019-02-06T06:11:05.662Z,4.00
2019-02-06T06:12:05.664Z,4.00
2019-02-06T06:13:05.654Z,4.07
2019-02-06T06:14:05.665Z,4.08
2019-02-06T06:15:05.662Z,4.00
2019-02-06T06:16:05.677Z,4.08
2019-02-06T06:17:05.660Z,4.10
2019-02-06T06:18:05.683Z,4.14
2019-02-06T06:19:05.665Z,4.14
2019-02-06T06:20:05.667Z,4.11
2019-02-06T06:21:05.663Z,4.16
2019-02-06T06:22:05.659Z,4.10
2019-02-06T06:23:05.667Z,4.13
2019-02-06T06:24:08.945Z,4.21
2019-02-06T06:25:05.679Z,4.13
2019-02-06T06:26:05.671Z,4.26
2019-02-06T06:27:05.675Z,4.17
2019-02-06T06:28:05.676Z,4.16
2019-02-06T06:29:05.686Z,4.17
2019-02-06T06:30:05.678Z,4.20
2019-02-06T06:31:05.679Z,4.24
2019-02-06T06:32:05.683Z,4.18
2019-02-06T06:33:05.682Z,4.21
2019-02-06T06:34:05.683Z,4.25
2019-02-06T06:35:05.786Z,4.25
2019-02-06T06:36:05.695Z,4.29
2019-02-06T06:37:05.688Z,4.38
2019-02-06T06:38:05.694Z,4.28
2019-02-06T06:39:05.714Z,4.25
2019-02-06T06:40:05.691Z,4.31
2019-02-06T06:41:05.690Z,4.34
2019-02-06T06:42:05.689Z,4.35
2019-02-06T06:43:05.691Z,4.31
2019-02-06T06:44:05.692Z,4.32
2019-02-06T06:45:05.694Z,4.28
2019-02-06T06:46:05.694Z,4.34
2019-02-06T06:47:05.705Z,4.26
2019-02-06T06:48:05.703Z,4.32
2019-02-06T06:49:05.710Z,4.29
2019-02-06T06:50:05.705Z,4.21
2019-02-06T06:51:05.736Z,4.38
2019-02-06T06:52:05.705Z,4.35
2019-02-06T06:53:05.716Z,4.36
2019-02-06T06:54:05.722Z,4.29
2019-02-06T06:55:05.720Z,4.36
2019-02-06T06:56:05.714Z,4.29
2019-02-06T06:57:05.711Z,4.39
2019-02-06T06:58:05.716Z,4.34
2019-02-06T06:59:05.844Z,4.34
2019-02-06T07:00:05.727Z,4.26
2019-02-06T07:01:05.715Z,4.29
2019-02-06T07:02:05.711Z,4.29
2019-02-06T07:03:05.726Z,4.28
2019-02-06T07:04:05.722Z,4.28
2019-02-06T07:05:05.851Z,4.34
2019-02-06T07:06:05.726Z,4.29
2019-02-06T07:07:05.726Z,4.29
2019-02-06T07:08:09.643Z,4.32
2019-02-06T07:09:05.726Z,4.35
2019-02-06T07:10:05.737Z,4.29
2019-02-06T07:11:05.735Z,4.36
2019-02-06T07:12:05.740Z,4.32
2019-02-06T07:13:05.746Z,4.29
2019-02-06T07:14:05.735Z,4.42
2019-02-06T07:15:05.740Z,4.44
2019-02-06T07:16:05.733Z,4.42
2019-02-06T07:17:05.734Z,4.32
2019-02-06T07:18:05.736Z,4.39
2019-02-06T07:19:05.740Z,4.31
2019-02-06T07:20:05.735Z,4.31
2019-02-06T07:21:05.744Z,4.44
2019-02-06T07:22:05.750Z,4.31
2019-02-06T07:23:05.752Z,4.46
2019-02-06T07:24:05.750Z,4.35
2019-02-06T07:25:05.758Z,4.34
2019-02-06T07:26:05.753Z,4.44
2019-02-06T07:27:05.757Z,4.43
2019-02-06T07:28:05.757Z,4.38
2019-02-06T07:29:05.759Z,4.51
2019-02-06T07:30:05.761Z,4.43
2019-02-06T07:31:05.766Z,4.49
2019-02-06T07:32:05.763Z,4.50
2019-02-06T07:33:05.763Z,4.49
2019-02-06T07:34:05.762Z,4.47
2019-02-06T07:35:05.758Z,4.59
2019-02-06T07:36:05.770Z,4.56
2019-02-06T07:37:05.768Z,4.57
2019-02-06T07:38:05.766Z,4.47
2019-02-06T07:39:05.772Z,4.54
2019-02-06T07:40:05.780Z,4.53
2019-02-06T07:41:05.781Z,4.54
2019-02-06T07:42:05.794Z,4.54
2019-02-06T07:43:05.775Z,4.50
2019-02-06T07:44:05.777Z,4.61
2019-02-06T07:45:05.784Z,4.57
2019-02-06T07:46:05.784Z,4.56
2019-02-06T07:47:05.787Z,4.72
2019-02-06T07:48:05.792Z,4.69
2019-02-06T07:49:05.796Z,4.71
2019-02-06T07:50:05.784Z,4.67
2019-02-06T07:51:05.790Z,4.72
2019-02-06T07:52:05.793Z,4.71
2019-02-06T07:53:05.800Z,4.83
2019-02-06T07:54:05.795Z,4.79
2019-02-06T07:55:05.800Z,4.80
2019-02-06T07:56:05.804Z,4.87
2019-02-06T07:57:05.815Z,4.77
2019-02-06T07:58:05.828Z,4.84
2019-02-06T07:59:05.813Z,4.84
2019-02-06T08:00:05.807Z,4.80
2019-02-06T08:01:05.815Z,4.91
2019-02-06T08:02:05.820Z,4.94
2019-02-06T08:03:05.813Z,4.86
2019-02-06T08:04:05.816Z,4.86
2019-02-06T08:05:05.817Z,4.84
2019-02-06T08:06:05.826Z,5.01
2019-02-06T08:07:05.825Z,4.97
2019-02-06T08:08:05.828Z,5.01
2019-02-06T08:09:05.835Z,5.06
2019-02-06T08:10:05.830Z,5.09
2019-02-06T08:11:05.837Z,5.08
2019-02-06T08:12:05.838Z,5.09
2019-02-06T08:13:05.840Z,5.14
2019-02-06T08:14:05.841Z,5.23
2019-02-06T08:15:05.851Z,5.20
2019-02-06T08:16:07.410Z,5.19
2019-02-06T08:17:05.851Z,5.20
2019-02-06T08:18:05.851Z,5.30
2019-02-06T08:19:05.853Z,5.27
2019-02-06T08:20:05.855Z,5.30
2019-02-06T08:21:05.857Z,5.30
2019-02-06T08:22:05.860Z,5.30
2019-02-06T08:23:05.868Z,5.33
2019-02-06T08:24:05.869Z,5.32
2019-02-06T08:25:05.866Z,5.30
2019-02-06T08:26:05.875Z,5.45
2019-02-06T08:27:05.874Z,5.42
2019-02-06T08:28:05.872Z,5.45
2019-02-06T08:29:05.882Z,5.47
2019-02-06T08:30:05.884Z,5.45
2019-02-06T08:31:05.881Z,5.44
2019-02-06T08:32:05.885Z,5.47
2019-02-06T08:33:05.889Z,5.48
2019-02-06T08:34:05.895Z,5.48
2019-02-06T08:35:05.889Z,5.55
2019-02-06T08:36:05.894Z,5.56
2019-02-06T08:37:05.902Z,5.51
2019-02-06T08:38:05.902Z,5.51
2019-02-06T08:39:05.897Z,5.60
2019-02-06T08:40:05.905Z,5.49
2019-02-06T08:41:05.907Z,5.51
2019-02-06T08:42:05.910Z,5.52
2019-02-06T08:43:05.913Z,5.47
2019-02-06T08:44:05.920Z,5.62
2019-02-06T08:45:05.919Z,5.48
2019-02-06T08:46:05.915Z,5.49
2019-02-06T08:47:05.943Z,5.55
2019-02-06T08:48:05.932Z,5.65
2019-02-06T08:49:05.925Z,5.63
2019-02-06T08:50:05.930Z,5.65
2019-02-06T08:51:05.936Z,5.60
2019-02-06T08:52:05.935Z,5.60
2019-02-06T08:53:05.953Z,5.65
2019-02-06T08:54:05.948Z,5.62
2019-02-06T08:55:05.946Z,5.65
2019-02-06T08:56:05.950Z,5.63
2019-02-06T08:57:05.955Z,5.66
2019-02-06T08:58:05.954Z,5.70
2019-02-06T08:59:05.959Z,5.84
2019-02-06T09:00:05.978Z,5.69
2019-02-06T09:01:05.961Z,5.85
2019-02-06T09:02:05.960Z,5.90
2019-02-06T09:03:05.969Z,5.85
2019-02-06T09:04:05.972Z,5.88
2019-02-06T09:05:07.679Z,6.05
2019-02-06T09:06:05.994Z,6.10
2019-02-06T09:07:05.978Z,6.11
2019-02-06T09:08:05.987Z,6.13
2019-02-06T09:09:05.994Z,6.03
2019-02-06T09:10:05.998Z,6.25
2019-02-06T09:11:06.006Z,6.24
2019-02-06T09:12:05.997Z,6.16
2019-02-06T09:13:06.000Z,6.24
2019-02-06T09:14:06.122Z,6.19
2019-02-06T09:15:06.012Z,6.19
2019-02-06T09:16:06.026Z,6.28
2019-02-06T09:17:06.016Z,6.25
2019-02-06T09:18:06.021Z,6.25
2019-02-06T09:19:06.022Z,6.11
2019-02-06T09:20:06.031Z,6.21
2019-02-06T09:21:06.032Z,6.19
2019-02-06T09:22:06.034Z,6.14
2019-02-06T09:23:06.047Z,6.25
2019-02-06T09:24:06.042Z,6.38
2019-02-06T09:25:06.048Z,6.36
2019-02-06T09:26:06.054Z,6.27
2019-02-06T09:27:06.061Z,6.32
2019-02-06T09:28:06.058Z,6.38
2019-02-06T09:29:06.064Z,6.38
2019-02-06T09:30:06.067Z,6.45
2019-02-06T09:31:06.075Z,6.38
2019-02-06T09:32:06.077Z,6.46
2019-02-06T09:33:06.092Z,6.40
2019-02-06T09:34:06.090Z,6.43
2019-02-06T09:35:06.090Z,6.46
2019-02-06T09:36:06.097Z,6.46
2019-02-06T09:37:06.108Z,6.50
2019-02-06T09:38:06.103Z,6.54
2019-02-06T09:39:11.720Z,6.61
2019-02-06T09:40:06.117Z,6.73
2019-02-06T09:41:06.124Z,6.72
2019-02-06T09:42:06.124Z,6.81
2019-02-06T09:43:06.128Z,6.81
2019-02-06T09:44:06.145Z,6.97
2019-02-06T09:45:06.144Z,6.93
2019-02-06T09:46:06.144Z,6.89
2019-02-06T09:47:06.148Z,6.91
2019-02-06T09:48:06.156Z,6.97
2019-02-06T09:49:06.161Z,6.99
2019-02-06T09:50:06.179Z,6.79
2019-02-06T09:51:06.179Z,6.63
2019-02-06T09:52:06.179Z,6.69
2019-02-06T09:53:06.184Z,6.69
2019-02-06T09:54:06.189Z,6.73
2019-02-06T09:55:06.195Z,6.72
2019-02-06T09:56:06.197Z,6.73
2019-02-06T09:57:06.207Z,6.71
2019-02-06T09:58:06.207Z,6.71
2019-02-06T09:59:06.216Z,6.73
2019-02-06T10:00:06.217Z,6.75
2019-02-06T10:01:06.223Z,6.71
2019-02-06T10:02:06.229Z,6.63
2019-02-06T10:03:06.243Z,6.54
2019-02-06T10:04:06.241Z,6.61
2019-02-06T10:05:06.243Z,6.64
2019-02-06T10:06:06.243Z,6.72
2019-02-06T10:07:06.253Z,6.78
2019-02-06T10:08:06.256Z,6.72
2019-02-06T10:09:06.254Z,6.71
2019-02-06T10:10:06.268Z,6.65
2019-02-06T10:11:06.269Z,6.64
2019-02-06T10:12:06.271Z,6.61
2019-02-06T10:13:06.437Z,6.71
2019-02-06T10:14:06.293Z,6.60
2019-02-06T10:15:06.291Z,6.53
2019-02-06T10:16:06.295Z,6.54
2019-02-06T10:17:06.305Z,6.54
2019-02-06T10:18:06.305Z,6.51
2019-02-06T10:19:06.302Z,6.60
2019-02-06T10:20:06.304Z,6.54
2019-02-06T10:21:06.308Z,6.58
2019-02-06T10:22:06.316Z,6.68
2019-02-06T10:23:06.319Z,6.71
2019-02-06T10:24:06.323Z,6.65
2019-02-06T10:25:06.333Z,6.57
2019-02-06T10:26:06.330Z,6.61
2019-02-06T10:27:06.337Z,6.60
2019-02-06T10:28:06.345Z,6.64
2019-02-06T10:29:06.338Z,6.73
2019-02-06T10:30:06.345Z,6.75
2019-02-06T10:31:06.356Z,6.72
2019-02-06T10:32:06.352Z,6.71
2019-02-06T10:33:06.361Z,6.76
2019-02-06T10:34:06.358Z,6.72
2019-02-06T10:35:06.359Z,6.79
2019-02-06T10:36:06.365Z,6.78
2019-02-06T10:37:06.373Z,6.93
2019-02-06T10:38:06.374Z,6.94
2019-02-06T10:39:06.379Z,6.90
2019-02-06T10:40:06.388Z,6.96
2019-02-06T10:41:06.384Z,6.87
2019-02-06T10:42:06.393Z,6.97
2019-02-06T10:43:06.400Z,7.09
2019-02-06T10:44:06.395Z,7.09
2019-02-06T10:45:06.397Z,7.07
2019-02-06T10:46:06.410Z,7.09
2019-02-06T10:47:06.403Z,7.07
2019-02-06T10:48:06.408Z,7.12
2019-02-06T10:49:06.414Z,7.07
2019-02-06T10:50:06.421Z,7.15
2019-02-06T10:51:06.427Z,7.09
2019-02-06T10:52:06.459Z,7.12
2019-02-06T10:53:06.433Z,7.23
2019-02-06T10:54:06.435Z,7.23
2019-02-06T10:55:06.438Z,7.19
2019-02-06T10:56:06.447Z,7.21
2019-02-06T10:57:06.574Z,7.26
2019-02-06T10:58:06.454Z,7.33
2019-02-06T10:59:06.452Z,7.37
2019-02-06T11:00:06.459Z,7.36
2019-02-06T11:01:06.471Z,7.29
2019-02-06T11:02:06.470Z,7.30
2019-02-06T11:03:06.484Z,7.21
2019-02-06T11:04:06.486Z,7.19
2019-02-06T11:05:06.482Z,7.18
2019-02-06T11:06:06.486Z,7.11
2019-02-06T11:07:08.232Z,7.21
2019-02-06T11:08:06.493Z,7.23
2019-02-06T11:09:06.517Z,7.19
2019-02-06T11:10:06.509Z,7.19
2019-02-06T11:11:06.502Z,7.24
2019-02-06T11:12:06.511Z,7.39
2019-02-06T11:13:06.525Z,7.44
2019-02-06T11:14:06.521Z,7.34
2019-02-06T11:15:06.519Z,7.41
2019-02-06T11:16:06.530Z,7.41
2019-02-06T11:17:06.535Z,7.41
2019-02-06T11:18:06.531Z,7.45
2019-02-06T11:19:06.535Z,7.50
2019-02-06T11:20:06.539Z,7.52
2019-02-06T11:21:06.542Z,7.58
2019-02-06T11:22:06.549Z,7.52
2019-02-06T11:23:06.556Z,7.58
2019-02-06T11:24:06.571Z,7.55
2019-02-06T11:25:06.571Z,7.58
2019-02-06T11:26:06.567Z,7.63
2019-02-06T11:27:06.572Z,7.71
2019-02-06T11:28:06.576Z,7.71
2019-02-06T11:29:06.581Z,7.81
2019-02-06T11:30:06.586Z,7.86
2019-02-06T11:31:06.584Z,7.88
2019-02-06T11:32:06.596Z,7.99
2019-02-06T11:33:06.590Z,7.91
2019-02-06T11:34:06.592Z,7.92
2019-02-06T11:35:06.605Z,7.91
2019-02-06T11:36:06.609Z,7.88
2019-02-06T11:37:06.612Z,7.94
2019-02-06T11:38:06.615Z,8.00
2019-02-06T11:39:06.617Z,7.92
2019-02-06T11:40:06.625Z,7.89
2019-02-06T11:41:06.631Z,7.91
2019-02-06T11:42:06.627Z,8.00
2019-02-06T11:43:06.649Z,8.04
2019-02-06T11:44:06.647Z,8.04
2019-02-06T11:45:06.647Z,8.06
2019-02-06T11:46:09.046Z,8.03
2019-02-06T11:47:06.657Z,8.04
2019-02-06T11:48:06.665Z,8.07
2019-02-06T11:49:06.668Z,8.03
2019-02-06T11:50:06.682Z,8.06
2019-02-06T11:51:06.671Z,8.07
2019-02-06T11:52:06.681Z,8.04
2019-02-06T11:53:06.686Z,8.02
2019-02-06T11:54:06.703Z,8.04
2019-02-06T11:55:08.659Z,8.13
2019-02-06T11:56:06.702Z,8.18
2019-02-06T11:57:06.707Z,8.18
2019-02-06T11:58:06.713Z,8.28
2019-02-06T11:59:06.709Z,8.22
2019-02-06T12:00:06.718Z,8.22
2019-02-06T12:01:06.724Z,8.20
2019-02-06T12:02:06.725Z,8.28
2019-02-06T12:03:06.736Z,8.27
2019-02-06T12:04:06.739Z,8.28
2019-02-06T12:05:06.744Z,8.20
2019-02-06T12:06:06.747Z,8.24
2019-02-06T12:07:06.752Z,8.24
2019-02-06T12:08:06.756Z,8.24
2019-02-06T12:09:06.762Z,8.21
2019-02-06T12:10:09.784Z,8.22
2019-02-06T12:11:06.770Z,8.31
2019-02-06T12:12:06.775Z,8.34
2019-02-06T12:13:06.777Z,8.22
2019-02-06T12:14:06.784Z,8.24
2019-02-06T12:15:06.791Z,8.25
2019-02-06T12:16:06.808Z,8.28
2019-02-06T12:17:06.810Z,8.25
2019-02-06T12:18:06.812Z,8.27
2019-02-06T12:19:06.806Z,8.31
2019-02-06T12:20:06.818Z,8.40
2019-02-06T12:21:06.816Z,8.45
2019-02-06T12:22:06.831Z,8.46
2019-02-06T12:23:06.844Z,8.45
2019-02-06T12:24:06.827Z,8.46
2019-02-06T12:25:06.839Z,8.45
2019-02-06T12:26:06.954Z,8.37
2019-02-06T12:27:06.860Z,8.45
2019-02-06T12:28:06.847Z,8.47
2019-02-06T12:29:06.859Z,8.47
2019-02-06T12:30:06.861Z,8.43
2019-02-06T12:31:06.910Z,8.50
2019-02-06T12:32:06.872Z,8.58
2019-02-06T12:33:06.873Z,8.61
2019-02-06T12:34:06.881Z,8.64
2019-02-06T12:35:06.905Z,8.67
2019-02-06T12:36:06.893Z,8.76
2019-02-06T12:37:06.893Z,8.67
2019-02-06T12:38:06.909Z,8.61
2019-02-06T12:39:06.908Z,8.61
2019-02-06T12:40:06.915Z,8.61
2019-02-06T12:41:06.913Z,8.80
2019-02-06T12:42:06.919Z,8.70
2019-02-06T12:43:06.921Z,8.71
2019-02-06T12:44:06.928Z,8.75
2019-02-06T12:45:06.937Z,8.71
2019-02-06T12:46:06.959Z,8.71
2019-02-06T12:47:06.945Z,8.78
2019-02-06T12:48:06.949Z,8.80
2019-02-06T12:49:06.965Z,8.79
2019-02-06T12:50:06.959Z,8.83
2019-02-06T12:51:06.972Z,8.83
2019-02-06T12:52:06.970Z,8.88
2019-02-06T12:53:06.976Z,8.85
2019-02-06T12:54:06.990Z,8.88
2019-02-06T12:55:06.985Z,8.93
2019-02-06T12:56:06.991Z,9.03
2019-02-06T12:57:06.996Z,8.98
2019-02-06T12:58:07.002Z,8.89
2019-02-06T12:59:07.010Z,8.85
2019-02-06T13:00:07.039Z,8.93
2019-02-06T13:01:07.038Z,9.00
2019-02-06T13:02:07.020Z,9.08
2019-02-06T13:03:07.025Z,9.06
2019-02-06T13:04:07.029Z,9.00
2019-02-06T13:05:07.034Z,9.03
2019-02-06T13:06:07.039Z,8.98
2019-02-06T13:07:07.047Z,9.03
2019-02-06T13:08:07.055Z,9.12
2019-02-06T13:09:07.059Z,9.19
2019-02-06T13:10:07.067Z,9.15
2019-02-06T13:11:07.070Z,9.17
2019-02-06T13:12:07.084Z,9.16
2019-02-06T13:13:07.076Z,9.12
2019-02-06T13:14:07.079Z,9.20
2019-02-06T13:15:07.087Z,9.20
2019-02-06T13:16:07.081Z,9.19
2019-02-06T13:17:07.097Z,9.17
2019-02-06T13:18:07.111Z,9.20
2019-02-06T13:19:07.106Z,9.26
2019-02-06T13:20:07.113Z,9.31
2019-02-06T13:21:07.117Z,9.15
2019-02-06T13:22:07.126Z,9.26
2019-02-06T13:23:07.127Z,9.22
2019-02-06T13:24:07.138Z,9.17
2019-02-06T13:25:07.139Z,9.15
2019-02-06T13:26:07.150Z,9.15
2019-02-06T13:27:07.148Z,9.16
2019-02-06T13:28:07.152Z,9.15
2019-02-06T13:29:07.168Z,9.15
2019-02-06T13:30:07.159Z,9.19
2019-02-06T13:31:07.186Z,9.22
2019-02-06T13:32:07.166Z,9.26
2019-02-06T13:33:07.183Z,9.30
2019-02-06T13:34:07.190Z,9.26
2019-02-06T13:35:07.193Z,9.23
2019-02-06T13:36:07.196Z,9.24
2019-02-06T13:37:07.195Z,9.27
2019-02-06T13:38:07.208Z,9.26
2019-02-06T13:39:07.210Z,9.24
2019-02-06T13:40:07.218Z,9.24
2019-02-06T13:41:07.217Z,9.26
2019-02-06T13:42:07.240Z,9.23
2019-02-06T13:43:07.235Z,9.24
2019-02-06T13:44:07.234Z,9.32
2019-02-06T13:45:07.242Z,9.27
2019-02-06T13:46:07.246Z,9.26
2019-02-06T13:47:07.257Z,9.20
2019-02-06T13:48:07.255Z,9.24
2019-02-06T13:49:07.254Z,9.13
2019-02-06T13:50:07.273Z,9.20
2019-02-06T13:51:15.862Z,9.15
2019-02-06T13:52:07.273Z,9.20
2019-02-06T13:53:07.279Z,9.20
2019-02-06T13:54:07.283Z,9.20
2019-02-06T13:55:07.294Z,9.22
2019-02-06T13:56:07.293Z,9.24
2019-02-06T13:57:07.303Z,9.19
2019-02-06T13:58:07.324Z,9.23
2019-02-06T13:59:07.500Z,9.19
2019-02-06T14:00:07.325Z,9.20
2019-02-06T14:01:07.322Z,9.23
2019-02-06T14:02:07.398Z,9.31
2019-02-06T14:03:07.332Z,9.35
2019-02-06T14:04:07.348Z,9.34
2019-02-06T14:05:07.343Z,9.40
2019-02-06T14:06:07.363Z,9.37
2019-02-06T14:07:07.353Z,9.40
2019-02-06T14:08:07.373Z,9.35
2019-02-06T14:09:07.367Z,9.48
2019-02-06T14:10:07.369Z,9.42
2019-02-06T14:11:07.377Z,9.35
2019-02-06T14:12:07.382Z,9.37
2019-02-06T14:13:07.390Z,9.32
2019-02-06T14:14:07.386Z,9.34
2019-02-06T14:15:07.396Z,9.38
2019-02-06T14:16:07.395Z,9.38
2019-02-06T14:17:07.404Z,9.35
2019-02-06T14:18:07.423Z,9.41
2019-02-06T14:19:07.414Z,9.42
2019-02-06T14:20:07.423Z,9.44
2019-02-06T14:21:07.429Z,9.52
2019-02-06T14:22:09.897Z,9.48
2019-02-06T14:23:07.434Z,9.37
2019-02-06T14:24:07.441Z,9.37
2019-02-06T14:25:07.455Z,9.44
2019-02-06T14:26:07.449Z,9.48
2019-02-06T14:27:07.458Z,9.45
2019-02-06T14:28:07.463Z,9.40
2019-02-06T14:29:07.469Z,9.42
2019-02-06T14:30:07.474Z,9.48
2019-02-06T14:31:07.486Z,9.45
2019-02-06T14:32:07.489Z,9.52
2019-02-06T14:33:07.483Z,9.52
2019-02-06T14:34:07.491Z,9.50
2019-02-06T14:35:07.501Z,9.52